This is the latest recevied weather packets stored in our database for station/object KC7WRB. If no packets are shown the sender has not sent any weather packets the latest 10 day(s).
| Time | Temp. | Humidity | Pressure | Rain* | Wind** | Luminosity | Snow |
|---|---|---|---|---|---|---|---|
| 1777710855 | 10° C | 32% | 1016.7 hPa | 0 mm | - | 0 W/m² | - |
| 1777710553 | 10.56° C | 32% | 1016.9 hPa | 0 mm | - | 0 W/m² | - |
| 1777710250 | 10.56° C | 30% | 1017 hPa | 0 mm | - | 0 W/m² | - |
| 1777709947 | 9.44° C | 32% | 1016.9 hPa | 0 mm | - | 0 W/m² | - |
| 1777709645 | 8.89° C | 34% | 1017 hPa | 0 mm | - | 0 W/m² | - |
| 1777709341 | 7.78° C | 36% | 1016.9 hPa | 0 mm | - | 0 W/m² | - |
| 1777709039 | 8.33° C | 40% | 1017.1 hPa | 0 mm | - | 0 W/m² | - |
| 1777708736 | 10° C | 32% | 1017 hPa | 0 mm | - | 0 W/m² | - |
| 1777708434 | 9.44° C | 32% | 1016.8 hPa | 0 mm | - | 0 W/m² | - |
| 1777708132 | 8.89° C | 34% | 1017.1 hPa | 0 mm | - | 0 W/m² | - |
| 1777707829 | 8.89° C | 34% | 1017 hPa | 0 mm | - | 0 W/m² | - |
| 1777707525 | 8.33° C | 37% | 1017.1 hPa | 0 mm | - | 0 W/m² | - |
| 1777707221 | 8.33° C | 39% | 1016.9 hPa | 0 mm | - | 0 W/m² | - |
| 1777706919 | 8.33° C | 38% | 1017.1 hPa | 0 mm | - | 0 W/m² | - |
| 1777706616 | 8.89° C | 40% | 1017.1 hPa | 0 mm | - | 0 W/m² | - |
| 1777706314 | 9.44° C | 39% | 1017 hPa | 0 mm | - | 0 W/m² | - |
| 1777706011 | 10.56° C | 34% | 1017.2 hPa | 0 mm | - | 0 W/m² | - |
| 1777705710 | 10.56° C | 31% | 1017 hPa | 0 mm | - | 0 W/m² | - |
| 1777705407 | 10.56° C | 33% | 1017 hPa | 0 mm | - | 0 W/m² | - |
| 1777705106 | 11.67° C | 27% | 1017.1 hPa | 0 mm | - | 0 W/m² | - |
| 1777704803 | 11.11° C | 28% | 1017.2 hPa | 0 mm | - | 0 W/m² | - |
| 1777704501 | 11.11° C | 30% | 1017.1 hPa | 0 mm | - | 0 W/m² | - |
| 1777704199 | 11.67° C | 31% | 1017.2 hPa | 0 mm | - | 0 W/m² | - |
| 1777703896 | 11.67° C | 28% | 1017.1 hPa | 0 mm | - | 0 W/m² | - |
| 1777703594 | 11.67° C | 29% | 1017.5 hPa | 0 mm | - | 0 W/m² | - |
* Rain latest hour (hover to see other rain measurements)
** Current wind speed in m/s (hover to see current wind gust speed)